createdAt,value
2018-03-24T00:01:54.741Z,5.18
2018-03-24T00:04:23.126Z,5.12
2018-03-24T00:06:50.850Z,5.08
2018-03-24T00:09:18.579Z,5.12
2018-03-24T00:11:46.253Z,5.24
2018-03-24T00:14:13.976Z,5.21
2018-03-24T00:16:42.116Z,5.24
2018-03-24T00:19:09.896Z,5.17
2018-03-24T00:21:37.626Z,5.12
2018-03-24T00:24:05.757Z,5.17
2018-03-24T00:26:33.536Z,5.16
2018-03-24T00:29:01.314Z,5.14
2018-03-24T00:31:29.502Z,5.13
2018-03-24T00:33:57.237Z,5.12
2018-03-24T00:36:24.959Z,5.17
2018-03-24T00:38:53.144Z,5.20
2018-03-24T00:41:20.920Z,5.19
2018-03-24T00:43:48.593Z,5.12
2018-03-24T00:46:16.475Z,5.14
2018-03-24T00:48:44.253Z,5.16
2018-03-24T00:51:12.032Z,5.16
2018-03-24T00:53:40.220Z,5.09
2018-03-24T00:56:07.894Z,5.10
2018-03-24T00:58:35.490Z,5.11
2018-03-24T01:01:03.316Z,5.13
2018-03-24T01:03:31.020Z,5.07
2018-03-24T01:05:58.747Z,5.12
2018-03-24T01:08:26.585Z,5.17
2018-03-24T01:10:54.358Z,5.08
2018-03-24T01:13:22.132Z,5.13
2018-03-24T01:15:49.808Z,5.09
2018-03-24T01:18:17.593Z,5.10
2018-03-24T01:20:45.469Z,5.14
2018-03-24T01:23:13.247Z,5.15
2018-03-24T01:25:41.025Z,5.14
2018-03-24T01:28:08.803Z,5.20
2018-03-24T01:30:36.864Z,5.01
2018-03-24T01:33:04.669Z,5.16
2018-03-24T01:35:32.341Z,5.24
2018-03-24T01:38:00.227Z,5.24
2018-03-24T01:40:27.957Z,5.22
2018-03-24T01:42:55.779Z,5.19
2018-03-24T01:45:23.660Z,5.22
2018-03-24T01:47:51.514Z,5.26
2018-03-24T01:50:19.319Z,5.19
2018-03-24T01:52:47.149Z,5.20
2018-03-24T01:55:15.178Z,5.21
2018-03-24T01:57:42.921Z,5.23
2018-03-24T02:00:10.732Z,5.18
2018-03-24T02:02:38.620Z,5.12
2018-03-24T02:05:06.393Z,5.07
2018-03-24T02:07:34.173Z,5.22
2018-03-24T02:10:01.902Z,5.05
2018-03-24T02:12:29.938Z,5.12
2018-03-24T02:14:57.661Z,5.08
2018-03-24T02:17:25.385Z,5.18
2018-03-24T02:19:53.220Z,5.08
2018-03-24T02:22:20.947Z,5.12
2018-03-24T02:24:54.967Z,5.16
2018-03-24T02:27:22.747Z,5.13
2018-03-24T02:29:50.426Z,5.21
2018-03-24T02:32:18.608Z,5.09
2018-03-24T02:34:46.296Z,5.23
2018-03-24T02:37:13.952Z,5.29
2018-03-24T02:39:42.143Z,5.21
2018-03-24T02:42:09.924Z,5.11
2018-03-24T02:44:37.661Z,5.11
2018-03-24T02:47:05.482Z,5.05
2018-03-24T02:49:33.271Z,5.02
2018-03-24T02:52:01.453Z,5.13
2018-03-24T02:54:29.189Z,5.15
2018-03-24T02:56:57.002Z,5.08
2018-03-24T02:59:24.879Z,5.09
2018-03-24T03:01:52.560Z,5.11
2018-03-24T03:04:20.292Z,5.16
2018-03-24T03:06:48.116Z,5.20
2018-03-24T03:09:15.891Z,5.16
2018-03-24T03:11:43.499Z,5.21
2018-03-24T03:14:11.343Z,5.18
2018-03-24T03:16:39.225Z,5.18
2018-03-24T03:19:06.970Z,5.12
2018-03-24T03:24:33.790Z,5.10
2018-03-24T03:27:01.524Z,5.16
2018-03-24T03:29:29.316Z,5.32
2018-03-24T03:32:02.968Z,5.28
2018-03-24T03:34:30.742Z,5.31
2018-03-24T03:36:58.415Z,5.36
2018-03-24T03:39:26.197Z,5.37
2018-03-24T03:41:54.085Z,5.34
2018-03-24T03:44:21.747Z,5.38
2018-03-24T03:46:49.530Z,5.39
2018-03-24T03:49:17.616Z,5.37
2018-03-24T03:51:45.341Z,5.35
2018-03-24T03:54:13.169Z,5.31
2018-03-24T03:56:41.049Z,5.38
2018-03-24T03:59:08.830Z,5.39
2018-03-24T04:01:36.554Z,5.39
2018-03-24T04:04:04.488Z,5.34
2018-03-24T04:06:32.217Z,5.25
2018-03-24T04:08:59.937Z,5.13
2018-03-24T04:11:27.618Z,5.11
2018-03-24T04:13:55.391Z,5.11
2018-03-24T04:16:23.179Z,5.06
2018-03-24T04:18:50.944Z,5.18
2018-03-24T04:21:18.725Z,5.33
2018-03-24T04:23:46.506Z,5.70
2018-03-24T04:26:14.386Z,5.48
2018-03-24T04:28:42.113Z,5.63
2018-03-24T04:31:09.938Z,5.89
2018-03-24T04:33:37.674Z,5.81
2018-03-24T04:36:05.511Z,5.88
2018-03-24T04:38:33.168Z,5.70
2018-03-24T04:41:00.999Z,5.51
2018-03-24T04:43:28.738Z,5.31
2018-03-24T04:45:56.505Z,5.19
2018-03-24T04:48:24.293Z,5.27
2018-03-24T04:50:51.878Z,5.26
2018-03-24T04:53:19.737Z,5.18
2018-03-24T04:55:47.515Z,5.10
2018-03-24T04:58:15.187Z,5.00
2018-03-24T05:00:42.966Z,5.13
2018-03-24T05:03:10.695Z,5.13
2018-03-24T05:05:38.315Z,5.02
2018-03-24T05:08:06.201Z,4.94
2018-03-24T05:10:33.863Z,4.93
2018-03-24T05:13:01.651Z,5.00
2018-03-24T05:15:29.530Z,5.00
2018-03-24T05:17:57.313Z,4.93
2018-03-24T05:20:25.089Z,4.98
2018-03-24T05:22:52.867Z,4.94
2018-03-24T05:25:20.551Z,4.80
2018-03-24T05:27:48.321Z,4.96
2018-03-24T05:30:16.052Z,4.92
2018-03-24T05:32:43.874Z,4.88
2018-03-24T05:35:11.755Z,4.87
2018-03-24T05:37:39.475Z,4.83
2018-03-24T05:40:07.081Z,4.82
2018-03-24T05:42:34.882Z,4.84
2018-03-24T05:45:02.564Z,4.85
2018-03-24T05:47:30.297Z,4.87
2018-03-24T05:49:58.110Z,4.85
2018-03-24T05:52:25.893Z,4.87
2018-03-24T05:54:53.625Z,4.90
2018-03-24T05:57:21.335Z,4.85
2018-03-24T05:59:49.944Z,4.89
2018-03-24T06:02:17.616Z,4.87
2018-03-24T06:04:45.802Z,5.04
2018-03-24T06:07:13.584Z,5.09
2018-03-24T06:09:41.252Z,5.02
2018-03-24T06:12:09.022Z,4.89
2018-03-24T06:14:36.621Z,4.86
2018-03-24T06:17:04.284Z,4.91
2018-03-24T06:19:32.165Z,5.01
2018-03-24T06:21:59.942Z,5.00
2018-03-24T06:24:27.643Z,4.95
2018-03-24T06:26:55.503Z,4.95
2018-03-24T06:29:23.324Z,5.17
2018-03-24T06:32:02.793Z,5.11
2018-03-24T06:34:30.583Z,5.00
2018-03-24T06:37:08.322Z,5.01
2018-03-24T06:39:36.202Z,5.02
2018-03-24T06:42:04.083Z,5.02
2018-03-24T06:44:31.860Z,5.09
2018-03-24T06:46:59.637Z,5.09
2018-03-24T06:49:27.516Z,5.01
2018-03-24T06:51:55.247Z,5.06
2018-03-24T06:54:22.856Z,5.17
2018-03-24T06:56:50.608Z,5.12
2018-03-24T06:59:18.425Z,5.16
2018-03-24T07:01:46.265Z,5.30
2018-03-24T07:04:13.978Z,5.24
2018-03-24T07:06:41.758Z,5.23
2018-03-24T07:09:09.944Z,5.31
2018-03-24T07:11:37.725Z,5.36
2018-03-24T07:14:05.392Z,5.34
2018-03-24T07:16:33.487Z,5.39
2018-03-24T07:19:01.161Z,5.54
2018-03-24T07:21:28.833Z,5.72
2018-03-24T07:23:56.617Z,5.86
2018-03-24T07:26:24.393Z,5.73
2018-03-24T07:28:52.169Z,5.98
2018-03-24T07:31:20.419Z,6.39
2018-03-24T07:33:48.041Z,6.57
2018-03-24T07:36:15.795Z,6.26
2018-03-24T07:38:45.020Z,6.37
2018-03-24T07:41:12.796Z,6.50
2018-03-24T07:43:40.381Z,6.65
2018-03-24T07:46:08.157Z,6.75
2018-03-24T07:48:35.814Z,6.48
2018-03-24T07:51:03.603Z,6.68
2018-03-24T07:53:31.383Z,6.64
2018-03-24T07:55:59.404Z,6.68
2018-03-24T07:58:27.251Z,6.70
2018-03-24T08:00:55.021Z,7.14
2018-03-24T08:03:22.686Z,7.70
2018-03-24T08:05:50.481Z,7.68
2018-03-24T08:08:18.357Z,7.70
2018-03-24T08:10:46.109Z,8.18
2018-03-24T08:13:13.912Z,8.46
2018-03-24T08:15:41.793Z,8.23
2018-03-24T08:18:09.569Z,8.34
2018-03-24T08:20:37.322Z,7.98
2018-03-24T08:23:05.130Z,8.21
2018-03-24T08:25:33.939Z,8.07
2018-03-24T08:28:01.823Z,8.15
2018-03-24T08:30:29.631Z,7.91
2018-03-24T08:32:57.466Z,8.46
2018-03-24T08:35:25.695Z,8.19
2018-03-24T08:37:53.441Z,8.23
2018-03-24T08:40:21.066Z,8.33
2018-03-24T08:42:48.789Z,8.77
2018-03-24T08:45:16.410Z,8.94
2018-03-24T08:47:44.411Z,9.81
2018-03-24T08:50:12.117Z,9.57
2018-03-24T08:52:39.897Z,8.81
2018-03-24T08:55:07.541Z,9.20
2018-03-24T08:57:35.226Z,8.73
2018-03-24T09:00:02.924Z,8.72
2018-03-24T09:02:30.574Z,8.90
2018-03-24T09:04:58.182Z,8.68
2018-03-24T09:07:25.830Z,9.37
2018-03-24T09:09:53.485Z,9.32
2018-03-24T09:12:21.098Z,9.12
2018-03-24T09:14:49.602Z,9.26
2018-03-24T09:17:17.239Z,9.68
2018-03-24T09:19:45.044Z,9.80
2018-03-24T09:22:12.827Z,9.22
2018-03-24T09:24:40.490Z,9.35
2018-03-24T09:27:08.294Z,9.57
2018-03-24T09:29:35.984Z,9.72
2018-03-24T09:32:03.639Z,9.73
2018-03-24T09:34:31.301Z,8.38
2018-03-24T09:36:58.943Z,8.86
2018-03-24T09:39:26.630Z,8.92
2018-03-24T09:41:54.252Z,9.48
2018-03-24T09:44:21.869Z,9.74
2018-03-24T09:46:49.859Z,9.73
2018-03-24T09:49:17.463Z,9.77
2018-03-24T09:51:45.098Z,10.28
2018-03-24T09:54:12.756Z,9.63
2018-03-24T09:56:40.432Z,10.03
2018-03-24T09:59:08.452Z,10.51
2018-03-24T10:01:36.114Z,9.93
2018-03-24T10:04:03.783Z,10.05
2018-03-24T10:06:31.502Z,9.77
2018-03-24T10:08:59.129Z,9.95
2018-03-24T10:11:26.744Z,9.93
2018-03-24T10:13:54.380Z,10.33
2018-03-24T10:16:22.072Z,10.66
2018-03-24T10:18:49.729Z,10.28
2018-03-24T10:24:24.245Z,10.24
2018-03-24T10:26:51.932Z,9.79
2018-03-24T10:29:19.565Z,10.14
2018-03-24T10:31:48.145Z,10.38
2018-03-24T10:34:15.836Z,9.87
2018-03-24T10:36:43.471Z,9.99
2018-03-24T10:39:11.090Z,9.93
2018-03-24T10:41:38.754Z,10.08
2018-03-24T10:44:06.378Z,9.93
2018-03-24T10:46:34.001Z,10.21
2018-03-24T10:49:01.661Z,10.27
2018-03-24T10:51:29.682Z,10.66
2018-03-24T10:53:57.365Z,10.87
2018-03-24T10:56:25.144Z,11.01
2018-03-24T10:58:52.807Z,11.43
2018-03-24T11:01:25.889Z,11.18
2018-03-24T11:03:53.908Z,11.16
2018-03-24T11:06:21.566Z,11.76
2018-03-24T11:08:49.180Z,10.95
2018-03-24T11:11:16.874Z,10.76
2018-03-24T11:13:44.530Z,11.02
2018-03-24T11:16:12.218Z,10.53
2018-03-24T11:18:39.852Z,10.64
2018-03-24T11:21:07.465Z,10.54
2018-03-24T11:23:35.140Z,10.36
2018-03-24T11:26:02.762Z,10.79
2018-03-24T11:28:30.450Z,11.36
2018-03-24T11:30:58.231Z,9.92
2018-03-24T11:33:25.895Z,10.81
2018-03-24T11:35:53.531Z,10.64
2018-03-24T11:38:21.141Z,11.10
2018-03-24T11:40:48.934Z,11.15
2018-03-24T11:43:16.558Z,11.35
2018-03-24T11:45:44.259Z,11.00
2018-03-24T11:48:11.855Z,11.55
2018-03-24T11:50:39.478Z,11.40
2018-03-24T11:53:07.125Z,10.46
2018-03-24T11:55:34.747Z,10.61
2018-03-24T11:58:02.561Z,11.70
2018-03-24T12:00:30.338Z,11.88
2018-03-24T12:02:58.116Z,11.24
2018-03-24T12:05:25.791Z,11.81
2018-03-24T12:07:53.402Z,11.63
2018-03-24T12:10:21.224Z,11.36
2018-03-24T12:12:48.818Z,11.18
2018-03-24T12:15:16.429Z,11.49
2018-03-24T12:17:44.150Z,11.06
2018-03-24T12:20:11.782Z,11.93
2018-03-24T12:22:39.453Z,12.64
2018-03-24T12:25:07.300Z,12.10
2018-03-24T12:27:35.075Z,11.81
2018-03-24T12:30:02.808Z,12.29
2018-03-24T12:32:30.523Z,12.76
2018-03-24T12:34:58.266Z,12.19
2018-03-24T12:37:25.979Z,12.55
2018-03-24T12:39:53.794Z,12.08
2018-03-24T12:42:21.545Z,12.12
2018-03-24T12:44:49.929Z,11.83
2018-03-24T12:47:17.609Z,12.09
2018-03-24T12:49:45.383Z,11.97
2018-03-24T12:52:13.024Z,11.60
2018-03-24T12:54:40.751Z,11.49
2018-03-24T12:57:08.512Z,11.60
2018-03-24T12:59:36.167Z,11.48
2018-03-24T13:02:04.165Z,11.61
2018-03-24T13:04:31.792Z,11.81
2018-03-24T13:06:59.441Z,11.81
2018-03-24T13:09:27.099Z,11.44
2018-03-24T13:11:54.872Z,11.96
2018-03-24T13:14:22.652Z,12.48
2018-03-24T13:16:50.440Z,11.35
2018-03-24T13:19:18.106Z,12.59
2018-03-24T13:21:45.881Z,12.17
2018-03-24T13:24:13.546Z,12.11
2018-03-24T13:26:41.747Z,11.82
2018-03-24T13:29:09.360Z,11.48
2018-03-24T13:31:36.976Z,11.70
2018-03-24T13:34:04.873Z,11.67
2018-03-24T13:36:32.652Z,11.84
2018-03-24T13:39:00.325Z,11.46
2018-03-24T13:41:28.241Z,11.87
2018-03-24T13:43:55.879Z,11.53
2018-03-24T13:46:23.496Z,12.22
2018-03-24T13:48:51.177Z,11.80
2018-03-24T13:51:19.012Z,12.37
2018-03-24T13:53:46.787Z,11.66
2018-03-24T13:56:14.446Z,12.22
2018-03-24T13:58:42.063Z,12.01
2018-03-24T14:01:09.918Z,11.91
2018-03-24T14:03:37.573Z,11.90
2018-03-24T14:06:05.335Z,11.85
2018-03-24T14:08:32.984Z,11.78
2018-03-24T14:11:00.619Z,11.54
2018-03-24T14:13:28.362Z,11.53
2018-03-24T14:15:56.190Z,11.80
2018-03-24T14:18:24.192Z,12.02
2018-03-24T14:20:51.818Z,11.80
2018-03-24T14:23:19.612Z,11.51
2018-03-24T14:25:47.332Z,11.80
2018-03-24T14:28:15.066Z,11.72
2018-03-24T14:30:42.843Z,11.54
2018-03-24T14:33:10.530Z,11.69
2018-03-24T14:35:38.154Z,11.74
2018-03-24T14:38:05.778Z,11.76
2018-03-24T14:40:33.452Z,11.59
2018-03-24T14:43:01.108Z,11.62
2018-03-24T14:45:28.805Z,11.42
2018-03-24T14:47:57.083Z,11.48
2018-03-24T14:50:24.716Z,11.57
2018-03-24T14:52:52.434Z,11.75
2018-03-24T14:55:20.173Z,11.57
2018-03-24T14:57:47.788Z,11.56
2018-03-24T15:00:15.557Z,11.50
2018-03-24T15:02:43.213Z,11.47
2018-03-24T15:05:10.921Z,11.43
2018-03-24T15:07:38.591Z,11.70
2018-03-24T15:10:06.250Z,11.77
2018-03-24T15:12:34.017Z,11.67
2018-03-24T15:15:01.683Z,11.36
2018-03-24T15:17:29.306Z,11.43
2018-03-24T15:19:57.488Z,11.45
2018-03-24T15:22:25.266Z,11.32
2018-03-24T15:24:52.998Z,11.46
2018-03-24T15:27:20.668Z,11.70
2018-03-24T15:30:00.206Z,11.77
2018-03-24T15:35:32.397Z,11.29
2018-03-24T15:38:00.268Z,11.75
2018-03-24T15:40:28.040Z,11.91
2018-03-24T15:42:55.789Z,11.76
2018-03-24T15:45:23.913Z,11.77
2018-03-24T15:47:51.788Z,11.80
2018-03-24T15:50:19.514Z,11.73
2018-03-24T15:52:47.138Z,11.31
2018-03-24T15:55:14.877Z,11.39
2018-03-24T15:57:42.695Z,11.83
2018-03-24T16:00:10.468Z,11.38
2018-03-24T16:02:38.103Z,11.24
2018-03-24T16:05:05.745Z,11.39
2018-03-24T16:07:33.440Z,11.06
2018-03-24T16:10:01.047Z,11.33
2018-03-24T16:12:28.710Z,11.29
2018-03-24T16:14:56.402Z,11.19
2018-03-24T16:17:24.000Z,11.56
2018-03-24T16:19:51.626Z,11.26
2018-03-24T16:22:19.623Z,11.10
2018-03-24T16:24:47.383Z,11.11
2018-03-24T16:27:15.004Z,10.88
2018-03-24T16:29:42.684Z,10.85
2018-03-24T16:32:10.306Z,10.84
2018-03-24T16:34:37.928Z,10.77
2018-03-24T16:37:05.638Z,10.90
2018-03-24T16:39:33.266Z,10.94
2018-03-24T16:42:00.885Z,11.10
2018-03-24T16:44:28.550Z,10.94
2018-03-24T16:46:56.176Z,11.15
2018-03-24T16:49:23.867Z,11.13
2018-03-24T16:51:51.519Z,10.94
2018-03-24T16:54:19.338Z,10.68
2018-03-24T16:56:47.114Z,10.68
2018-03-24T16:59:14.737Z,10.73
2018-03-24T17:01:42.569Z,10.74
2018-03-24T17:04:10.346Z,10.75
2018-03-24T17:06:38.227Z,10.59
2018-03-24T17:09:06.106Z,10.52
2018-03-24T17:11:33.882Z,10.54
2018-03-24T17:14:01.662Z,10.51
2018-03-24T17:16:29.347Z,10.47
2018-03-24T17:18:57.466Z,10.45
2018-03-24T17:21:25.302Z,10.41
2018-03-24T17:23:53.048Z,10.37
2018-03-24T17:26:21.276Z,10.35
2018-03-24T17:28:49.046Z,10.17
2018-03-24T17:31:16.689Z,10.17
2018-03-24T17:33:44.374Z,10.19
2018-03-24T17:36:11.992Z,10.24
2018-03-24T17:38:39.620Z,10.17
2018-03-24T17:41:07.713Z,10.22
2018-03-24T17:43:35.333Z,10.01
2018-03-24T17:46:02.983Z,9.93
2018-03-24T17:48:30.654Z,10.05
2018-03-24T17:50:58.367Z,10.03
2018-03-24T17:53:26.022Z,9.82
2018-03-24T17:55:53.647Z,9.78
2018-03-24T17:58:22.080Z,9.66
2018-03-24T18:00:49.766Z,9.62
2018-03-24T18:03:17.400Z,9.56
2018-03-24T18:05:44.999Z,9.44
2018-03-24T18:08:12.690Z,9.37
2018-03-24T18:10:40.306Z,9.36
2018-03-24T18:13:07.924Z,9.31
2018-03-24T18:15:35.602Z,9.34
2018-03-24T18:18:03.209Z,9.28
2018-03-24T18:20:30.851Z,9.28
2018-03-24T18:22:58.488Z,9.28
2018-03-24T18:25:26.153Z,9.30
2018-03-24T18:27:53.774Z,9.30
2018-03-24T18:30:21.383Z,9.23
2018-03-24T18:32:49.133Z,9.21
2018-03-24T18:35:16.753Z,9.17
2018-03-24T18:37:44.372Z,9.13
2018-03-24T18:40:12.067Z,9.17
2018-03-24T18:42:39.727Z,9.12
2018-03-24T18:45:07.354Z,9.05
2018-03-24T18:47:35.024Z,8.98
2018-03-24T18:50:02.664Z,8.94
2018-03-24T18:52:30.299Z,8.94
2018-03-24T18:54:57.979Z,9.04
2018-03-24T18:57:25.588Z,8.97
2018-03-24T18:59:53.233Z,8.97
2018-03-24T19:02:20.913Z,8.90
2018-03-24T19:04:48.599Z,9.02
2018-03-24T19:07:16.234Z,9.00
2018-03-24T19:09:43.851Z,8.95
2018-03-24T19:12:11.526Z,8.91
2018-03-24T19:14:39.223Z,8.88
2018-03-24T19:17:06.844Z,8.82
2018-03-24T19:19:34.479Z,8.81
2018-03-24T19:22:02.141Z,8.77
2018-03-24T19:24:29.744Z,8.75
2018-03-24T19:26:57.418Z,8.68
2018-03-24T19:29:25.043Z,8.70
2018-03-24T19:31:52.648Z,8.65
2018-03-24T19:34:20.306Z,8.66
2018-03-24T19:36:47.930Z,8.74
2018-03-24T19:39:15.589Z,8.65
2018-03-24T19:41:43.185Z,8.72
2018-03-24T19:44:10.855Z,8.61
2018-03-24T19:46:38.973Z,8.75
2018-03-24T19:49:06.572Z,8.63
2018-03-24T19:51:34.174Z,8.51
2018-03-24T19:54:01.825Z,8.51
2018-03-24T19:56:29.488Z,8.55
2018-03-24T19:58:57.145Z,8.49
2018-03-24T20:01:24.769Z,8.46
2018-03-24T20:03:52.475Z,8.44
2018-03-24T20:06:20.094Z,8.49
2018-03-24T20:08:47.761Z,8.47
2018-03-24T20:11:15.420Z,8.43
2018-03-24T20:13:43.028Z,8.36
2018-03-24T20:16:11.076Z,8.32
2018-03-24T20:18:38.680Z,8.21
2018-03-24T20:21:06.291Z,8.12
2018-03-24T20:23:34.020Z,8.24
2018-03-24T20:26:01.739Z,8.32
2018-03-24T20:28:29.358Z,8.32
2018-03-24T20:30:56.969Z,8.31
2018-03-24T20:33:24.641Z,8.35
2018-03-24T20:35:52.258Z,8.35
2018-03-24T20:38:19.876Z,8.32
2018-03-24T20:40:47.549Z,8.35
2018-03-24T20:43:15.138Z,8.29
2018-03-24T20:45:42.786Z,8.30
2018-03-24T20:48:10.384Z,8.32
2018-03-24T20:50:38.408Z,8.33
2018-03-24T20:53:06.019Z,8.44
2018-03-24T20:55:33.660Z,8.43
2018-03-24T20:58:01.315Z,8.39
2018-03-24T21:00:28.937Z,8.54
2018-03-24T21:02:56.582Z,8.49
2018-03-24T21:05:24.171Z,8.69
2018-03-24T21:07:51.868Z,8.69
2018-03-24T21:10:19.444Z,8.44
2018-03-24T21:12:47.043Z,8.57
2018-03-24T21:15:14.694Z,8.37
2018-03-24T21:17:42.300Z,7.95
2018-03-24T21:20:10.271Z,7.63
2018-03-24T21:22:37.878Z,7.35
2018-03-24T21:25:05.505Z,7.14
2018-03-24T21:27:33.180Z,6.88
2018-03-24T21:30:00.848Z,7.60
2018-03-24T21:32:28.438Z,6.89
2018-03-24T21:34:56.086Z,6.60
2018-03-24T21:37:23.751Z,6.57
2018-03-24T21:39:51.383Z,6.33
2018-03-24T21:42:18.975Z,6.11
2018-03-24T21:44:46.629Z,5.84
2018-03-24T21:47:14.213Z,5.62
2018-03-24T21:49:41.868Z,5.43
2018-03-24T21:52:09.475Z,5.25
2018-03-24T21:54:37.076Z,5.05
2018-03-24T21:57:04.744Z,4.98
2018-03-24T21:59:32.550Z,4.98
2018-03-24T22:02:00.173Z,5.16
2018-03-24T22:04:27.803Z,5.14
2018-03-24T22:06:55.400Z,5.46
2018-03-24T22:09:23.081Z,5.71
2018-03-24T22:11:50.688Z,5.63
2018-03-24T22:14:18.298Z,5.30
2018-03-24T22:16:45.950Z,4.85
2018-03-24T22:19:13.543Z,4.75
2018-03-24T22:21:41.134Z,4.45
2018-03-24T22:24:08.808Z,4.32
2018-03-24T22:26:36.413Z,4.17
2018-03-24T22:29:04.428Z,4.03
2018-03-24T22:31:32.049Z,4.07
2018-03-24T22:33:59.668Z,4.08
2018-03-24T22:36:27.308Z,4.08
2018-03-24T22:38:54.937Z,3.85
2018-03-24T22:41:25.456Z,3.77
2018-03-24T22:43:53.072Z,3.67
2018-03-24T22:46:20.685Z,3.67
2018-03-24T22:48:48.326Z,3.58
2018-03-24T22:51:15.916Z,3.62
2018-03-24T22:53:43.529Z,3.49
2018-03-24T22:56:11.206Z,3.34
2018-03-24T22:58:38.816Z,3.25
2018-03-24T23:01:06.492Z,3.23
2018-03-24T23:03:34.932Z,3.18
2018-03-24T23:06:02.561Z,3.15
2018-03-24T23:08:30.200Z,3.16
2018-03-24T23:10:57.814Z,3.12
2018-03-24T23:13:25.456Z,3.17
2018-03-24T23:15:53.093Z,3.16
2018-03-24T23:18:20.693Z,3.17
2018-03-24T23:20:48.329Z,3.27
2018-03-24T23:23:15.987Z,3.12
2018-03-24T23:25:43.602Z,3.11
2018-03-24T23:28:12.186Z,2.99
2018-03-24T23:30:39.831Z,2.90
2018-03-24T23:33:08.328Z,2.79
2018-03-24T23:35:35.977Z,2.79
2018-03-24T23:38:04.385Z,3.00
2018-03-24T23:40:32.018Z,2.96
2018-03-24T23:42:59.954Z,2.80
2018-03-24T23:45:27.541Z,2.88
2018-03-24T23:47:55.136Z,2.92
2018-03-24T23:50:22.795Z,2.90
2018-03-24T23:52:50.382Z,2.96
2018-03-24T23:55:18.278Z,2.86
2018-03-24T23:57:46.246Z,2.80
